Bayle, Illinois
Current Conditions -  °F | °C
As of 6:15 AM on Friday 21 Nov 2014 (Local Time) from K1H2 Reporting Station
Clear Clear  
Wind Chill: 13°   Ceiling: Unl
Heat Index: 19°   Visibility: NA
Dew Point:   Wind: 5mph
Humidity: 60%   Direction: 90°E
Pressure: 30.43"   Gusts: NA
Location:  39.1031°N, 89.1042°W
Report Text: K1H2 211215Z AUTO 09004KT CLR M07/M13 A3043 RMK AO2 T10701135 PWINO
Loading
Personal Weather Stations






























Interactive Weather Map New forecast layout! Learn more

10-Day Weather Forecast

Advertisements
Track Severe Weather on mobile